Time;durP1;ratioP1;P1;durP2;ratioP2;P2;SDS_P1;SDS_P2;PMS_P1;PMS_P2;Temp;Humidity;BMP_temperature;BMP_pressure;BME280_temperature;BME280_humidity;BME280_pressure;Samples;Min_cycle;Max_cycle;Signal;HPM_P1;HPM_P2
2022/02/23 00:01:35;;;;;;;6.13;5.53;;;;;;;8.27;70.87;99353.22;4955702;28;20026;-91
2022/02/23 00:04:02;;;;;;;8.75;7.07;;;;;;;8.35;71.19;99371.66;4959232;28;20415;-89
2022/02/23 00:06:28;;;;;;;4.70;4.20;;;;;;;8.69;71.43;99410.88;4982550;28;20094;-87
2022/02/23 00:08:54;;;;;;;4.15;3.78;;;;;;;8.12;71.34;99376.72;4982597;28;20022;-89
2022/02/23 00:11:19;;;;;;;4.90;4.50;;;;;;;7.72;71.47;99288.22;4973112;28;20060;-91
2022/02/23 00:13:44;;;;;;;3.90;3.50;;;;;;;8.47;71.79;99435.25;4966125;28;20097;-91
2022/02/23 00:16:10;;;;;;;4.65;4.22;;;;;;;8.57;71.69;99433.25;4965941;28;20035;-91
2022/02/23 00:18:36;;;;;;;4.68;4.25;;;;;;;8.70;71.46;99453.81;4964228;28;20046;-91
2022/02/23 00:21:01;;;;;;;4.53;4.10;;;;;;;8.51;71.17;99397.09;4955924;28;20030;-92
2022/02/23 00:23:27;;;;;;;4.68;4.28;;;;;;;8.62;71.13;99430.94;4955477;28;20547;-92
2022/02/23 00:25:52;;;;;;;4.38;3.97;;;;;;;7.96;71.44;99314.47;4956499;28;20030;-93
2022/02/23 00:28:18;;;;;;;4.22;3.92;;;;;;;8.52;71.45;99406.63;4956657;28;20031;-94
2022/02/23 00:30:43;;;;;;;5.05;4.65;;;;;;;8.15;71.38;99373.75;4956295;28;20496;-93
2022/02/23 00:33:09;;;;;;;4.85;4.40;;;;;;;8.28;70.92;99358.31;4956413;28;20105;-93
2022/02/23 00:35:35;;;;;;;4.32;3.95;;;;;;;8.46;71.22;99402.03;4957117;28;20054;-93
2022/02/23 00:38:01;;;;;;;4.65;4.22;;;;;;;8.51;71.45;99395.28;4956643;28;20041;-92
2022/02/23 00:40:26;;;;;;;5.15;4.57;;;;;;;8.47;71.28;99395.78;4988177;28;20020;-92
2022/02/23 00:42:56;;;;;;;4.30;4.00;;;;;;;8.50;71.00;99395.47;4981458;28;20047;-93
2022/02/23 00:45:23;;;;;;;4.88;4.15;;;;;;;6.81;70.94;99104.63;4975468;28;20035;-93
2022/02/23 00:47:48;;;;;;;4.78;4.38;;;;;;;7.38;70.58;99219.25;4958642;28;20031;-93
2022/02/23 00:50:14;;;;;;;4.85;4.45;;;;;;;8.53;70.93;99387.22;4956691;28;20519;-93
2022/02/23 00:52:40;;;;;;;5.07;4.15;;;;;;;8.38;70.53;99375.75;4956201;28;20084;-92
2022/02/23 00:55:06;;;;;;;5.05;4.65;;;;;;;8.22;70.91;99340.59;4974518;28;20031;-93
2022/02/23 00:57:31;;;;;;;4.85;4.40;;;;;;;8.24;70.60;99349.13;4955788;28;20038;-93
2022/02/23 00:59:57;;;;;;;4.72;4.32;;;;;;;8.40;70.45;99379.84;4955803;28;20058;-93
2022/02/23 01:02:24;;;;;;;4.60;4.20;;;;;;;8.81;70.76;99445.53;4973155;28;20057;-92
2022/02/23 01:04:49;;;;;;;4.97;4.50;;;;;;;8.60;71.00;99432.94;4955674;28;20041;-93
2022/02/23 01:07:15;;;;;;;4.75;4.35;;;;;;;8.10;70.81;99357.66;4955735;28;20027;-93
2022/02/23 01:09:41;;;;;;;4.80;4.40;;;;;;;8.70;70.99;99466.97;4956745;28;20027;-93
2022/02/23 01:12:07;;;;;;;5.55;4.78;;;;;;;8.68;70.81;99461.88;4955653;28;20027;-92
2022/02/23 01:14:32;;;;;;;5.50;5.00;;;;;;;7.96;71.36;99369.69;4958925;28;20066;-92
2022/02/23 01:16:58;;;;;;;5.47;4.97;;;;;;;8.59;70.96;99458.44;4959468;28;20031;-92
2022/02/23 01:19:23;;;;;;;5.95;5.28;;;;;;;8.00;70.89;99354.41;4959538;28;20031;-93
2022/02/23 01:21:49;;;;;;;6.15;5.60;;;;;;;8.66;70.81;99442.78;4959340;28;20055;-91
2022/02/23 01:24:14;;;;;;;5.00;4.50;;;;;;;8.04;70.91;99366.22;4960023;28;20069;-92
2022/02/23 01:26:40;;;;;;;5.10;4.47;;;;;;;8.53;70.86;99438.03;4958898;28;20118;-93
2022/02/23 01:29:05;;;;;;;4.88;4.47;;;;;;;8.31;71.08;99422.09;4958748;28;20467;-92
2022/02/23 01:31:31;;;;;;;6.22;5.65;;;;;;;7.89;71.26;99349.47;4960172;28;20031;-92
2022/02/23 01:33:56;;;;;;;6.35;4.90;;;;;;;8.33;70.83;99435.91;4958418;28;20089;-91
2022/02/23 01:36:22;;;;;;;5.72;5.22;;;;;;;8.14;70.69;99400.22;4958344;28;20508;-92
2022/02/23 01:38:47;;;;;;;5.90;5.40;;;;;;;7.92;70.78;99373.63;4958412;28;20094;-93
2022/02/23 01:41:17;;;;;;;6.43;5.82;;;;;;;8.31;71.21;99435.25;4959708;28;20050;-92
2022/02/23 01:43:44;;;;;;;6.60;6.00;;;;;;;7.79;70.85;99343.56;4975953;28;20047;-92
2022/02/23 01:46:09;;;;;;;6.43;5.82;;;;;;;7.85;71.20;99364.75;4975962;28;20107;-92
2022/02/23 01:48:35;;;;;;;6.25;5.68;;;;;;;7.95;71.18;99367.22;4959716;28;20454;-92
2022/02/23 01:51:00;;;;;;;7.07;6.47;;;;;;;7.58;71.15;99299.41;4958641;28;20046;-92
2022/02/23 01:53:25;;;;;;;6.47;5.85;;;;;;;7.72;71.00;99353.09;4958423;28;20033;-93
2022/02/23 01:55:51;;;;;;;7.15;5.93;;;;;;;7.90;70.72;99351.94;4959730;28;20042;-92
2022/02/23 01:58:16;;;;;;;6.85;6.15;;;;;;;8.23;70.83;99423.75;4958014;28;20511;-91
2022/02/23 02:00:42;;;;;;;6.13;5.60;;;;;;;8.58;70.89;99495.44;4957946;28;20077;-92
2022/02/23 02:03:07;;;;;;;7.05;6.40;;;;;;;8.40;70.90;99479.00;4959512;28;20052;-92
2022/02/23 02:05:33;;;;;;;6.25;5.65;;;;;;;7.39;70.74;99299.69;4958073;28;20034;-92
2022/02/23 02:07:59;;;;;;;5.93;5.38;;;;;;;6.59;70.69;99192.63;4958013;28;20093;-92
2022/02/23 02:10:24;;;;;;;7.63;6.85;;;;;;;8.28;70.66;99445.13;4975370;28;20034;-92
2022/02/23 02:12:49;;;;;;;6.97;6.28;;;;;;;8.53;70.81;99488.03;4959059;28;20026;-92
2022/02/23 02:15:15;;;;;;;6.50;5.88;;;;;;;8.23;70.68;99457.13;4958072;28;20035;-92
2022/02/23 02:17:41;;;;;;;7.72;6.93;;;;;;;7.90;71.08;99412.41;4958012;28;20027;-92
2022/02/23 02:20:09;;;;;;;7.10;6.40;;;;;;;8.31;70.81;99453.66;4959192;28;20027;-92
2022/02/23 02:22:35;;;;;;;8.43;7.53;;;;;;;8.25;70.61;99463.03;4975135;28;20055;-91
2022/02/23 02:25:00;;;;;;;7.15;6.45;;;;;;;8.07;71.04;99449.22;4956806;28;20025;-91
2022/02/23 02:27:26;;;;;;;7.30;6.60;;;;;;;8.36;70.58;99509.25;4959029;28;20023;-92
2022/02/23 02:29:52;;;;;;;7.43;6.30;;;;;;;7.36;70.77;99342.03;4958045;28;20042;-91
2022/02/23 02:32:18;;;;;;;7.35;6.65;;;;;;;7.47;70.62;99354.91;4974892;28;20023;-92
2022/02/23 02:34:46;;;;;;;7.93;7.05;;;;;;;7.56;70.60;99375.75;4958885;28;20181;-92
2022/02/23 02:37:14;;;;;;;7.55;6.82;;;;;;;7.51;70.79;99371.97;4957318;28;20031;-91
2022/02/23 02:39:39;;;;;;;7.97;7.18;;;;;;;8.38;70.48;99505.47;4957135;28;20027;-91
2022/02/23 02:42:05;;;;;;;7.00;6.38;;;;;;;8.14;70.75;99482.56;4957471;28;20488;-92
2022/02/23 02:44:31;;;;;;;7.60;6.45;;;;;;;7.99;70.65;99478.94;4974304;28;20058;-91
2022/02/23 02:46:57;;;;;;;7.68;6.97;;;;;;;8.09;70.54;99489.31;4957644;28;20113;-92
2022/02/23 02:49:22;;;;;;;7.60;6.95;;;;;;;6.96;70.38;99333.94;4974421;28;20027;-91
2022/02/23 02:51:48;;;;;;;7.35;6.65;;;;;;;8.13;70.32;99480.09;4957222;28;20060;-92
2022/02/23 02:54:13;;;;;;;8.27;7.47;;;;;;;7.07;70.00;99311.81;4957639;28;20038;-92
2022/02/23 02:56:40;;;;;;;8.65;6.70;;;;;;;7.60;70.30;99400.72;4956917;28;20034;-92
2022/02/23 02:59:06;;;;;;;7.28;6.57;;;;;;;8.31;70.27;99508.91;4956896;28;20114;-92
2022/02/23 03:01:33;;;;;;;7.07;6.38;;;;;;;7.71;70.63;99414.53;4974689;28;20037;-92
2022/02/23 03:03:59;;;;;;;7.15;6.45;;;;;;;7.93;70.26;99469.09;4956708;28;20109;-92
2022/02/23 03:06:24;;;;;;;7.28;6.57;;;;;;;7.11;70.42;99336.75;4956701;28;20117;-92
2022/02/23 03:08:52;;;;;;;7.22;6.53;;;;;;;8.44;70.11;99530.31;4957514;28;20066;-92
2022/02/23 03:11:18;;;;;;;7.65;6.88;;;;;;;7.86;70.30;99465.47;4974251;28;20130;-91
2022/02/23 03:13:44;;;;;;;7.43;6.72;;;;;;;7.54;70.35;99425.00;4974320;28;20027;-91
2022/02/23 03:16:12;;;;;;;7.50;6.80;;;;;;;8.41;70.09;99546.44;4957943;28;20026;-92
2022/02/23 03:18:37;;;;;;;7.25;6.55;;;;;;;8.32;69.82;99542.94;4956467;28;20058;-93
2022/02/23 03:21:03;;;;;;;7.78;7.00;;;;;;;7.58;70.26;99413.19;4956587;28;20052;-92
2022/02/23 03:23:29;;;;;;;7.45;6.75;;;;;;;8.41;70.22;99554.31;4957807;28;20511;-92
2022/02/23 03:25:55;;;;;;;8.40;7.53;;;;;;;7.53;69.78;99417.28;4956634;28;20027;-93
2022/02/23 03:28:21;;;;;;;8.35;7.55;;;;;;;7.70;70.24;99458.38;4973760;28;20046;-92
2022/02/23 03:30:47;;;;;;;8.45;7.00;;;;;;;8.45;69.80;99566.16;4957759;28;20439;-92
2022/02/23 03:33:12;;;;;;;7.00;6.30;;;;;;;8.48;69.98;99595.59;4973707;28;20089;-93
2022/02/23 03:35:40;;;;;;;8.13;7.32;;;;;;;8.06;69.79;99498.34;4956230;28;20031;-93
2022/02/23 03:38:07;;;;;;;7.88;7.07;;;;;;;8.17;69.44;99510.34;4957284;28;20488;-92
2022/02/23 03:40:33;;;;;;;7.95;7.25;;;;;;;8.37;69.74;99548.56;4956487;28;20038;-93
2022/02/23 03:42:59;;;;;;;8.27;7.47;;;;;;;8.22;69.87;99534.38;4956606;28;20030;-92
2022/02/23 03:45:25;;;;;;;8.10;7.20;;;;;;;8.59;69.69;99583.94;4956561;28;20527;-92
2022/02/23 03:47:51;;;;;;;8.20;7.50;;;;;;;8.58;70.01;99584.91;4956379;28;20063;-92
2022/02/23 03:50:16;;;;;;;9.48;8.57;;;;;;;8.53;69.60;99587.22;4955959;28;20031;-92
2022/02/23 03:52:42;;;;;;;7.75;7.05;;;;;;;8.40;69.91;99571.09;4955874;28;20414;-92
2022/02/23 03:55:10;;;;;;;10.02;9.02;;;;;;;8.45;69.38;99576.69;4956303;28;20502;-92
2022/02/23 03:57:35;;;;;;;8.52;7.72;;;;;;;7.73;69.90;99476.44;4955963;28;20027;-92
2022/02/23 04:00:06;;;;;;;8.50;7.70;;;;;;;8.56;69.87;99592.16;4955906;28;20420;-93
2022/02/23 04:02:32;;;;;;;7.50;6.80;;;;;;;8.25;69.83;99557.72;4957291;28;20042;-91
2022/02/23 04:04:57;;;;;;;9.73;8.73;;;;;;;8.37;69.65;99589.84;4956434;28;20126;-91
2022/02/23 04:07:22;;;;;;;8.80;7.90;;;;;;;7.76;69.90;99494.53;4956249;28;20114;-92
2022/02/23 04:09:48;;;;;;;8.23;7.43;;;;;;;7.50;69.87;99468.34;4958070;28;20093;-92
2022/02/23 04:12:17;;;;;;;8.43;7.57;;;;;;;8.53;69.52;99618.78;4956431;28;20393;-93
2022/02/23 04:14:43;;;;;;;10.15;8.77;;;;;;;7.95;69.79;99533.66;4956681;28;20122;-93
2022/02/23 04:17:09;;;;;;;8.80;8.05;;;;;;;8.46;69.64;99615.16;4957121;28;20042;-92
2022/02/23 04:19:35;;;;;;;9.15;8.25;;;;;;;8.60;69.99;99631.13;4956367;28;20109;-93
2022/02/23 04:22:01;;;;;;;9.88;8.90;;;;;;;7.85;69.82;99519.84;4955857;28;20086;-93
2022/02/23 04:24:27;;;;;;;9.85;8.93;;;;;;;8.04;69.90;99538.94;4956159;28;20023;-93
2022/02/23 04:26:52;;;;;;;10.32;9.32;;;;;;;8.19;69.89;99577.59;4956418;28;20033;-93
2022/02/23 04:29:18;;;;;;;10.63;9.65;;;;;;;8.35;69.82;99599.69;4955818;28;20030;-93
2022/02/23 04:31:43;;;;;;;9.90;9.00;;;;;;;8.44;69.84;99596.09;4957250;28;20034;-93
2022/02/23 04:34:09;;;;;;;9.23;8.32;;;;;;;8.06;69.39;99550.94;4956179;28;20507;-92
2022/02/23 04:36:35;;;;;;;9.82;8.82;;;;;;;8.54;69.93;99644.13;4955901;28;20053;-92
2022/02/23 04:39:00;;;;;;;10.55;9.48;;;;;;;8.41;69.36;99618.28;4955396;28;20491;-92
2022/02/23 04:41:26;;;;;;;11.75;10.25;;;;;;;7.86;69.67;99525.91;4958915;28;20026;-92
2022/02/23 04:43:51;;;;;;;11.13;10.13;;;;;;;8.13;69.92;99620.31;4955669;28;20027;-92
2022/02/23 04:46:17;;;;;;;9.88;8.95;;;;;;;8.44;69.75;99619.75;4955803;28;20488;-93
2022/02/23 04:48:44;;;;;;;11.18;10.18;;;;;;;8.58;70.13;99648.91;4958648;28;20053;-91
2022/02/23 04:51:10;;;;;;;10.80;9.80;;;;;;;8.00;69.64;99558.63;4959509;28;20023;-93
2022/02/23 04:53:36;;;;;;;11.00;9.98;;;;;;;8.63;69.92;99658.94;4959908;28;20031;-92
2022/02/23 04:56:03;;;;;;;11.63;10.52;;;;;;;7.92;69.78;99554.19;4978063;28;20353;-93
2022/02/23 04:58:29;;;;;;;11.15;10.05;;;;;;;8.33;69.52;99605.13;4959369;28;20117;-92
2022/02/23 05:00:54;;;;;;;11.75;10.60;;;;;;;8.64;69.90;99670.28;4959561;28;20047;-93
2022/02/23 05:03:20;;;;;;;11.05;10.02;;;;;;;8.38;69.83;99628.31;4959318;28;20452;-93
2022/02/23 05:05:48;;;;;;;10.98;9.88;;;;;;;8.02;69.65;99583.78;4960608;28;20026;-93
2022/02/23 05:08:13;;;;;;;11.90;10.80;;;;;;;7.43;69.82;99533.00;4959191;28;20030;-92
2022/02/23 05:10:39;;;;;;;10.65;9.57;;;;;;;8.47;70.24;99686.03;4958919;28;20507;-92
2022/02/23 05:13:05;;;;;;;11.75;10.55;;;;;;;8.20;70.07;99610.81;4960363;28;20480;-92
2022/02/23 05:15:31;;;;;;;11.27;10.10;;;;;;;8.26;70.19;99641.72;4958696;28;20096;-92
2022/02/23 05:17:56;;;;;;;10.68;9.57;;;;;;;8.54;70.18;99676.53;4959094;28;20113;-92
2022/02/23 05:20:21;;;;;;;12.25;10.93;;;;;;;7.95;69.86;99624.84;4960562;28;20026;-92
2022/02/23 05:22:48;;;;;;;12.68;11.30;;;;;;;7.27;69.57;99443.63;4959016;28;20508;-93
2022/02/23 05:25:17;;;;;;;10.68;9.68;;;;;;;8.42;69.75;99640.97;4958899;28;20033;-92
2022/02/23 05:27:43;;;;;;;10.82;9.30;;;;;;;7.82;69.26;99580.63;4958580;28;20030;-92
2022/02/23 05:30:10;;;;;;;10.48;9.38;;;;;;;8.55;69.95;99699.22;4960592;28;20596;-93
2022/02/23 05:32:36;;;;;;;10.98;9.90;;;;;;;7.31;69.71;99489.59;4958852;28;20023;-92
2022/02/23 05:35:03;;;;;;;10.68;9.57;;;;;;;7.89;69.94;99604.47;4958689;28;20039;-92
2022/02/23 05:37:28;;;;;;;11.38;10.27;;;;;;;7.95;69.50;99623.03;4958795;28;20069;-92
2022/02/23 05:39:54;;;;;;;11.98;10.73;;;;;;;8.29;69.62;99662.47;4960900;28;20038;-92
2022/02/23 05:42:19;;;;;;;12.02;10.75;;;;;;;8.37;69.77;99679.28;4958517;28;20455;-92
2022/02/23 05:44:44;;;;;;;11.18;10.00;;;;;;;7.73;69.63;99588.63;4958899;28;20033;-92
2022/02/23 05:47:10;;;;;;;10.55;9.45;;;;;;;8.46;69.33;99700.19;4959007;28;20034;-92
2022/02/23 05:49:35;;;;;;;9.70;8.70;;;;;;;7.22;69.38;99504.50;4977440;28;20125;-93
2022/02/23 05:52:01;;;;;;;10.13;9.10;;;;;;;8.25;69.56;99682.19;4958677;28;20050;-92
2022/02/23 05:54:26;;;;;;;10.65;9.55;;;;;;;7.21;69.46;99546.66;4959263;28;20027;-93
2022/02/23 05:56:54;;;;;;;11.35;9.68;;;;;;;8.04;69.61;99652.00;4958747;28;20038;-92
2022/02/23 05:59:20;;;;;;;10.40;9.35;;;;;;;8.51;69.38;99736.53;4957074;28;20058;-92
2022/02/23 06:01:45;;;;;;;10.73;9.63;;;;;;;7.84;69.67;99630.41;4959617;28;20428;-91
2022/02/23 06:04:10;;;;;;;10.77;9.35;;;;;;;7.73;69.23;99605.22;4957816;28;20031;-91
2022/02/23 06:06:36;;;;;;;9.90;8.82;;;;;;;8.19;68.69;99693.34;4957866;28;20041;-92
2022/02/23 06:09:02;;;;;;;9.32;8.43;;;;;;;7.12;68.60;99514.28;4958024;28;20030;-92
2022/02/23 06:11:27;;;;;;;10.93;9.77;;;;;;;7.75;68.58;99615.56;4967011;28;20035;-92
2022/02/23 06:13:53;;;;;;;10.55;9.52;;;;;;;7.51;68.75;99564.56;4973035;28;20079;-91
2022/02/23 06:16:20;;;;;;;10.00;8.82;;;;;;;8.34;68.92;99713.81;4965559;28;20053;-93
2022/02/23 06:18:45;;;;;;;10.23;9.18;;;;;;;8.27;68.71;99714.41;4958721;28;20052;-92
2022/02/23 06:21:11;;;;;;;10.90;9.82;;;;;;;8.02;68.83;99707.38;4957993;28;20559;-92
2022/02/23 06:23:37;;;;;;;11.13;10.00;;;;;;;8.18;69.15;99698.75;4958553;28;20112;-91
2022/02/23 06:26:04;;;;;;;13.77;12.35;;;;;;;8.19;69.13;99703.03;4958295;28;20027;-92
2022/02/23 06:28:29;;;;;;;15.82;13.93;;;;;;;7.43;68.76;99580.28;4958074;28;20444;-92
2022/02/23 06:30:55;;;;;;;13.13;11.70;;;;;;;7.75;69.13;99620.84;4957987;28;20114;-92
2022/02/23 06:33:22;;;;;;;12.93;11.63;;;;;;;7.88;69.10;99642.25;4958992;28;20388;-92
2022/02/23 06:35:50;;;;;;;14.88;11.95;;;;;;;8.21;69.41;99696.63;4958525;28;20118;-92
2022/02/23 06:38:16;;;;;;;13.13;11.30;;;;;;;8.19;68.95;99708.28;4960272;28;20041;-92
2022/02/23 06:40:41;;;;;;;11.43;9.32;;;;;;;8.38;69.50;99739.63;4973010;28;20114;-92
2022/02/23 06:43:07;;;;;;;11.32;10.13;;;;;;;8.18;69.39;99704.00;4957245;28;20026;-92
2022/02/23 06:45:34;;;;;;;13.27;11.68;;;;;;;7.89;69.49;99680.69;4946844;29;20019;-92
2022/02/23 06:48:00;;;;;;;11.73;10.52;;;;;;;7.60;69.26;99618.81;4955333;29;20059;-92
2022/02/23 06:50:26;;;;;;;14.40;11.45;;;;;;;8.25;69.33;99726.06;4939482;29;20023;-92
2022/02/23 06:52:53;;;;;;;14.00;11.77;;;;;;;8.34;69.32;99734.84;4979665;28;20026;-92
2022/02/23 06:55:19;;;;;;;13.95;12.43;;;;;;;8.43;69.13;99768.09;4955483;28;20045;-91
2022/02/23 06:57:45;;;;;;;15.38;12.50;;;;;;;8.66;69.10;99777.06;4953082;28;20492;-91
2022/02/23 07:00:12;;;;;;;14.95;12.10;;;;;;;8.02;68.84;99673.19;4972380;28;20484;-91
2022/02/23 07:02:38;;;;;;;14.55;12.27;;;;;;;8.71;68.85;99780.03;4956178;28;20035;-90
2022/02/23 07:05:05;;;;;;;12.15;10.90;;;;;;;8.69;68.82;99776.72;4946056;28;20031;-89
2022/02/23 07:07:30;;;;;;;14.82;12.65;;;;;;;8.70;68.84;99796.81;4953732;28;20516;-90
2022/02/23 07:09:56;;;;;;;15.60;13.52;;;;;;;8.11;69.23;99711.69;4940050;28;20117;-90
2022/02/23 07:12:21;;;;;;;17.13;15.05;;;;;;;8.11;68.73;99753.75;4963801;28;20092;-90
2022/02/23 07:14:47;;;;;;;18.27;16.35;;;;;;;8.75;68.79;99797.16;4955802;28;20027;-90
2022/02/23 07:17:13;;;;;;;19.88;17.65;;;;;;;8.52;68.68;99757.44;4947293;28;20059;-91
2022/02/23 07:19:38;;;;;;;14.40;12.60;;;;;;;8.40;68.64;99744.72;4963019;28;20491;-91
2022/02/23 07:22:04;;;;;;;13.57;12.18;;;;;;;8.35;68.62;99712.81;4949891;28;20049;-91
2022/02/23 07:24:32;;;;;;;13.05;11.50;;;;;;;8.31;68.59;99750.91;4940703;29;20027;-91
2022/02/23 07:26:59;;;;;;;11.98;10.75;;;;;;;8.33;67.95;99735.78;4950939;28;20037;-89
2022/02/23 07:29:24;;;;;;;10.43;9.32;;;;;;;8.08;68.18;99748.00;4955565;28;20034;-90
2022/02/23 07:31:50;;;;;;;10.38;9.38;;;;;;;8.73;68.31;99799.13;4955506;28;20397;-90
2022/02/23 07:34:17;;;;;;;11.30;9.65;;;;;;;7.87;68.11;99662.44;4955575;28;20026;-90
2022/02/23 07:36:43;;;;;;;12.38;11.18;;;;;;;8.76;67.87;99803.25;4956299;28;20038;-91
2022/02/23 07:39:09;;;;;;;10.40;9.20;;;;;;;8.23;67.79;99743.81;4956285;28;20027;-91
2022/02/23 07:41:34;;;;;;;14.48;12.73;;;;;;;7.69;67.64;99682.72;4973545;28;20034;-90
2022/02/23 07:44:01;;;;;;;13.18;11.80;;;;;;;7.96;67.47;99677.28;4953495;28;20026;-92
2022/02/23 07:46:27;;;;;;;13.10;11.63;;;;;;;8.00;67.61;99703.25;4955851;28;20073;-91
2022/02/23 07:48:58;;;;;;;14.10;10.80;;;;;;;7.62;67.81;99651.00;4953681;28;20038;-93
2022/02/23 07:51:24;;;;;;;11.05;9.90;;;;;;;8.81;67.45;99828.09;4955421;28;20038;-91
2022/02/23 07:53:52;;;;;;;11.93;10.65;;;;;;;8.69;67.13;99818.03;4952909;28;20045;-91
2022/02/23 07:56:18;;;;;;;10.82;8.77;;;;;;;8.64;67.63;99812.41;4951931;28;20082;-91
2022/02/23 07:58:44;;;;;;;10.75;9.68;;;;;;;8.66;67.47;99821.81;4953595;28;20516;-91
2022/02/23 08:01:28;;;;;;;11.25;10.13;;;;;;;8.85;67.23;99834.69;4963336;28;20045;-91
2022/02/23 08:03:54;;;;;;;11.93;10.63;;;;;;;8.79;67.32;99827.44;4951524;28;20037;-89
2022/02/23 08:06:20;;;;;;;12.27;11.00;;;;;;;8.44;67.33;99773.19;4953943;28;20027;-90
2022/02/23 08:08:45;;;;;;;11.48;10.27;;;;;;;8.79;67.23;99835.34;4953085;28;20045;-91
2022/02/23 08:11:11;;;;;;;11.27;10.10;;;;;;;8.72;67.34;99821.16;4970029;28;20034;-91
2022/02/23 08:13:36;;;;;;;12.32;10.15;;;;;;;7.54;67.59;99658.84;4975474;28;20082;-91
2022/02/23 08:21:30;;;;;;;13.00;11.60;;;;;;;8.70;67.64;99814.41;4963335;28;20058;-91
2022/02/23 08:23:55;;;;;;;15.48;12.50;;;;;;;8.22;67.53;99757.94;4973103;28;20038;-91
2022/02/23 08:26:21;;;;;;;14.23;12.52;;;;;;;8.38;67.41;99773.84;4945767;29;20038;-91
2022/02/23 08:28:46;;;;;;;17.33;15.35;;;;;;;8.75;67.51;99836.63;4937656;29;20082;-92
2022/02/23 08:31:12;;;;;;;17.92;15.48;;;;;;;8.34;67.49;99751.44;4946668;29;20054;-92
2022/02/23 08:33:38;;;;;;;14.60;12.98;;;;;;;8.57;67.48;99812.22;4936528;29;20089;-92
2022/02/23 08:36:04;;;;;;;14.68;13.18;;;;;;;8.88;67.16;99837.00;4945977;28;21580;-92
2022/02/23 08:38:30;;;;;;;13.30;12.00;;;;;;;9.05;67.37;99873.97;4946151;28;20023;-93
2022/02/23 08:40:55;;;;;;;14.55;12.82;;;;;;;8.23;67.24;99754.34;4952817;28;20027;-93
2022/02/23 08:43:21;;;;;;;14.40;12.93;;;;;;;8.03;67.18;99745.00;4948079;28;20453;-92
2022/02/23 08:45:46;;;;;;;14.57;13.05;;;;;;;8.88;66.94;99849.34;4951825;28;20038;-91
2022/02/23 08:48:12;;;;;;;14.93;13.35;;;;;;;7.71;67.01;99640.53;4946067;28;20019;-93
2022/02/23 08:50:38;;;;;;;14.23;12.82;;;;;;;9.05;67.43;99884.50;4943332;28;20058;-94
2022/02/23 08:53:03;;;;;;;17.77;14.65;;;;;;;8.96;67.56;99864.38;4955677;28;20031;-94
2022/02/23 08:55:29;;;;;;;14.60;12.77;;;;;;;8.77;67.29;99833.84;4947468;29;20031;-94
2022/02/23 08:57:58;;;;;;;17.33;15.63;;;;;;;8.65;67.53;99801.72;4947858;28;20026;-92
2022/02/23 09:00:23;;;;;;;23.17;16.05;;;;;;;8.08;67.62;99706.72;4949486;28;20034;-94
2022/02/23 09:02:49;;;;;;;20.17;16.65;;;;;;;9.00;67.31;99860.44;4952806;28;20412;-90
2022/02/23 09:05:14;;;;;;;23.17;18.75;;;;;;;8.81;67.21;99817.56;4953296;28;20023;-91
2022/02/23 09:07:40;;;;;;;17.83;15.73;;;;;;;8.84;67.08;99827.78;4971630;28;20059;-90
2022/02/23 09:10:06;;;;;;;15.63;13.70;;;;;;;8.55;67.15;99770.28;4954365;28;20062;-91
2022/02/23 09:12:31;;;;;;;14.57;13.07;;;;;;;8.46;66.62;99763.34;4952956;28;20058;-90
2022/02/23 09:14:56;;;;;;;13.48;12.07;;;;;;;8.51;66.43;99792.63;4954128;28;20031;-91
2022/02/23 09:17:22;;;;;;;17.77;14.15;;;;;;;9.22;65.89;99908.09;4964795;28;20054;-92
2022/02/23 09:19:49;;;;;;;16.75;15.00;;;;;;;8.46;66.20;99780.94;4954924;28;20023;-91
2022/02/23 09:22:15;;;;;;;15.95;14.18;;;;;;;8.55;66.01;99803.66;4956876;28;20046;-92
2022/02/23 09:24:41;;;;;;;14.73;13.18;;;;;;;8.52;65.88;99781.13;4957701;28;20027;-92
2022/02/23 09:27:07;;;;;;;14.85;13.18;;;;;;;9.36;65.88;99895.28;4955042;28;20431;-92
2022/02/23 09:29:36;;;;;;;14.73;13.23;;;;;;;9.37;65.70;99945.19;4967162;28;20531;-91
2022/02/23 09:32:06;;;;;;;15.95;14.30;;;;;;;9.42;65.91;99905.16;4954970;28;20423;-90
2022/02/23 09:34:31;;;;;;;14.95;13.45;;;;;;;8.61;65.55;99776.72;4973096;28;20113;-92
2022/02/23 09:36:57;;;;;;;14.73;13.30;;;;;;;8.86;65.69;99817.91;4957854;28;20109;-91
2022/02/23 09:39:24;;;;;;;16.25;14.27;;;;;;;9.00;65.53;99850.75;4956510;28;20141;-93
2022/02/23 09:41:52;;;;;;;17.85;14.98;;;;;;;8.69;65.62;99794.34;4939128;29;20031;-91
2022/02/23 09:44:18;;;;;;;17.00;15.27;;;;;;;9.60;65.41;99905.88;4957383;28;20487;-92
2022/02/23 09:46:44;;;;;;;21.55;14.07;;;;;;;9.65;65.39;99903.56;4953146;28;20031;-91
2022/02/23 09:49:11;;;;;;;15.90;14.13;;;;;;;9.72;65.33;99906.41;4946832;29;20050;-91
2022/02/23 09:51:36;;;;;;;15.43;13.93;;;;;;;9.56;65.37;99876.38;4954518;28;20485;-91
2022/02/23 09:54:02;;;;;;;16.95;15.15;;;;;;;8.95;65.31;99786.38;4953487;28;20125;-91
2022/02/23 09:56:28;;;;;;;17.60;15.75;;;;;;;9.06;65.19;99807.94;4957820;28;20030;-92
2022/02/23 09:58:54;;;;;;;17.95;15.45;;;;;;;9.72;64.98;99901.13;4958301;28;20389;-90
2022/02/23 10:01:27;;;;;;;16.95;15.30;;;;;;;9.49;65.14;99845.56;4974780;28;20109;-91
2022/02/23 10:03:54;;;;;;;16.10;14.48;;;;;;;9.84;65.12;99900.63;4957262;28;20069;-91
2022/02/23 10:06:29;;;;;;;20.00;16.38;;;;;;;9.88;65.03;99899.31;4939631;29;20023;-91
2022/02/23 10:09:02;;;;;;;21.45;18.40;;;;;;;9.61;65.25;99844.25;4953292;28;20069;-89
2022/02/23 10:11:31;;;;;;;16.50;14.73;;;;;;;8.90;64.81;99727.09;4954095;28;20035;-91
2022/02/23 10:13:57;;;;;;;14.48;12.82;;;;;;;9.27;64.90;99782.94;4957288;28;20082;-90
2022/02/23 10:16:30;;;;;;;16.92;14.20;;;;;;;10.00;64.43;99891.06;4957674;28;20145;-90
2022/02/23 10:19:06;;;;;;;16.05;14.35;;;;;;;10.14;64.22;99895.69;4969847;28;20045;-90
2022/02/23 10:21:51;;;;;;;19.75;16.98;;;;;;;10.17;63.81;99900.63;4956632;29;20055;-89
2022/02/23 10:24:33;;;;;;;17.13;15.02;;;;;;;10.22;63.99;99887.78;4955732;28;20031;-92
2022/02/23 10:27:04;;;;;;;17.95;15.70;;;;;;;10.21;64.08;99877.41;4974763;28;20089;-91
2022/02/23 10:29:33;;;;;;;16.55;14.85;;;;;;;10.35;64.00;99882.81;4952171;28;20034;-91
2022/02/23 10:32:03;;;;;;;15.88;14.20;;;;;;;10.48;63.87;99885.78;4957491;28;20165;-90
2022/02/23 10:34:29;;;;;;;17.67;15.68;;;;;;;10.32;63.78;99855.94;4958049;28;20030;-92
2022/02/23 10:37:01;;;;;;;17.33;15.45;;;;;;;10.21;63.47;99821.97;4975206;28;20030;-90
2022/02/23 10:39:41;;;;;;;17.98;15.80;;;;;;;9.91;63.11;99763.66;4957365;28;20040;-89
2022/02/23 10:42:12;;;;;;;17.23;15.52;;;;;;;10.33;63.12;99839.09;4956790;28;20030;-90
2022/02/23 10:44:43;;;;;;;;;;;;;;;10.67;63.12;99878.47;4953724;28;20049;-90
2022/02/23 10:47:20;;;;;;;16.92;14.73;;;;;;;10.11;62.82;99782.56;4942095;28;19907;-90
2022/02/23 10:50:29;;;;;;;20.75;18.20;;;;;;;10.77;63.01;99873.81;4955423;28;20035;-89
2022/02/23 10:52:57;;;;;;;19.60;16.33;;;;;;;10.74;62.79;99839.81;4971774;28;20047;-90
2022/02/23 10:55:29;;;;;;;18.42;15.85;;;;;;;10.24;62.95;99779.44;4959537;28;20027;-91
2022/02/23 10:57:57;;;;;;;20.13;18.02;;;;;;;10.80;62.61;99818.00;4966934;28;20011;-88
2022/02/23 11:00:26;;;;;;;21.08;18.38;;;;;;;10.70;62.06;99793.63;4981698;28;20027;-91
2022/02/23 11:02:53;;;;;;;19.38;15.85;;;;;;;11.19;62.01;99862.91;4977175;28;20468;-90
2022/02/23 11:05:25;;;;;;;19.70;17.60;;;;;;;10.79;61.73;99776.72;4970443;28;20066;-90
2022/02/23 11:07:57;;;;;;;21.17;18.02;;;;;;;11.30;61.48;99864.31;4967820;28;20038;-89
2022/02/23 11:10:23;;;;;;;16.83;14.88;;;;;;;11.18;61.73;99866.53;4982150;28;20027;-90
2022/02/23 11:12:51;;;;;;;17.02;15.30;;;;;;;9.98;61.03;99655.66;4974392;28;20042;-90
2022/02/23 11:15:20;;;;;;;17.40;15.40;;;;;;;11.25;61.25;99887.81;4971146;28;20033;-89
2022/02/23 11:17:47;;;;;;;16.38;14.00;;;;;;;10.94;61.16;99813.78;4942464;28;20027;-89
2022/02/23 11:20:30;;;;;;;19.45;16.70;;;;;;;11.09;61.27;99847.22;4955157;28;20058;-89
2022/02/23 11:23:00;;;;;;;22.13;17.48;;;;;;;10.67;61.50;99778.13;4953096;28;20081;-89
2022/02/23 11:25:29;;;;;;;16.80;15.00;;;;;;;9.94;61.34;99646.44;4972705;28;20094;-90
2022/02/23 11:28:03;;;;;;;20.35;16.63;;;;;;;11.02;61.43;99833.06;4972831;28;20058;-88
2022/02/23 11:30:30;;;;;;;17.63;15.80;;;;;;;10.93;61.30;99810.31;4948470;28;20033;-88
2022/02/23 11:32:56;;;;;;;19.08;16.40;;;;;;;11.27;61.28;99865.50;4954161;28;20026;-90
2022/02/23 11:35:41;;;;;;;17.80;15.60;;;;;;;11.21;61.36;99855.63;4954932;28;20035;-89